Time;durP1;ratioP1;P1;durP2;ratioP2;P2;SDS_P1;SDS_P2;PMS_P1;PMS_P2;Temp;Humidity;BMP_temperature;BMP_pressure;BME280_temperature;BME280_humidity;BME280_pressure;Samples;Min_cycle;Max_cycle;Signal;HPM_P1;HPM_P2
2021/10/01 00:02:47;;;;;;;2.93;1.40;;;;;11.30;101438.00;;;;10417669;28;20187;-77
2021/10/01 00:07:49;;;;;;;3.60;1.10;;;;;11.40;101424.00;;;;10422894;28;20251;-77
2021/10/01 00:12:51;;;;;;;4.13;1.30;;;;;11.50;101414.00;;;;10441986;28;20224;-77
2021/10/01 00:17:53;;;;;;;6.03;1.40;;;;;11.60;101414.00;;;;10441912;28;20205;-76
2021/10/01 00:22:55;;;;;;;6.60;1.30;;;;;11.50;101403.00;;;;10447677;28;20275;-76
2021/10/01 00:27:57;;;;;;;7.27;1.43;;;;;11.50;101399.00;;;;10431555;28;20197;-77
2021/10/01 00:32:59;;;;;;;5.17;1.20;;;;;11.50;101398.00;;;;10430688;28;20222;-77
2021/10/01 00:38:02;;;;;;;7.50;1.40;;;;;11.50;101406.00;;;;10446771;28;20198;-76
2021/10/01 00:43:04;;;;;;;4.13;1.23;;;;;11.50;101393.00;;;;10430063;28;20214;-77
2021/10/01 00:48:06;;;;;;;5.43;1.33;;;;;11.60;101399.00;;;;10463827;28;20194;-77
2021/10/01 00:53:08;;;;;;;5.27;1.13;;;;;11.60;101400.00;;;;10462299;28;20276;-77
2021/10/01 00:58:10;;;;;;;5.13;1.20;;;;;11.60;101390.00;;;;10461972;28;20722;-78
2021/10/01 01:03:12;;;;;;;4.37;1.03;;;;;11.60;101372.00;;;;10445932;28;20194;-77
2021/10/01 01:08:21;;;;;;;2.63;1.03;;;;;11.70;101382.00;;;;10445515;28;20244;-76
2021/10/01 01:13:44;;;;;;;7.13;1.37;;;;;11.70;101370.00;;;;10445593;28;20217;-77
2021/10/01 01:18:48;;;;;;;3.30;1.23;;;;;11.70;101374.00;;;;10437318;28;20270;-77
2021/10/01 01:24:08;;;;;;;2.17;1.33;;;;;11.60;101367.00;;;;10403897;28;20242;-77
2021/10/01 01:29:28;;;;;;;5.10;1.03;;;;;11.60;101356.00;;;;10458514;28;20206;-76
2021/10/01 01:34:34;;;;;;;4.80;1.33;;;;;11.60;101340.00;;;;10411637;28;20226;-77
2021/10/01 01:39:38;;;;;;;3.23;1.03;;;;;11.70;101333.00;;;;10427171;28;20213;-77
2021/10/01 01:44:42;;;;;;;3.07;1.00;;;;;11.80;101320.00;;;;10444100;28;20273;-77
2021/10/01 01:49:46;;;;;;;2.90;0.90;;;;;11.80;101320.00;;;;10443622;28;20210;-77
2021/10/01 01:54:49;;;;;;;1.47;0.70;;;;;11.90;101318.00;;;;10427060;28;20214;-77
2021/10/01 01:59:52;;;;;;;1.63;0.90;;;;;11.90;101307.00;;;;10504556;28;20560;-77
2021/10/01 02:05:01;;;;;;;11.67;1.20;;;;;12.00;101305.00;;;;10484167;28;20197;-77
2021/10/01 02:10:04;;;;;;;2.00;1.10;;;;;12.00;101301.00;;;;10484670;28;20246;-77
2021/10/01 02:15:08;;;;;;;4.33;1.17;;;;;12.00;101281.00;;;;10443689;28;20313;-77
2021/10/01 02:20:12;;;;;;;3.90;1.00;;;;;12.10;101279.00;;;;10443491;28;20252;-77
2021/10/01 02:30:37;;;;;;;3.93;0.87;;;;;12.10;101270.00;;;;10476305;28;20201;-77
2021/10/01 02:35:39;;;;;;;5.47;1.00;;;;;11.90;101268.00;;;;10483619;28;20221;-77
2021/10/01 02:40:42;;;;;;;4.87;1.27;;;;;11.80;101255.00;;;;10467299;28;20295;-77
2021/10/01 02:45:44;;;;;;;2.57;0.97;;;;;11.70;101260.00;;;;10467012;28;20194;-77
2021/10/01 02:50:55;;;;;;;7.57;1.10;;;;;11.60;101254.00;;;;10516641;28;20202;-77
2021/10/01 02:56:05;;;;;;;2.67;1.70;;;;;11.50;101248.00;;;;10466649;28;20312;-77
2021/10/01 03:01:10;;;;;;;5.50;1.10;;;;;11.50;101257.00;;;;10466334;28;20193;-77
2021/10/01 03:06:13;;;;;;;5.57;1.10;;;;;11.40;101244.00;;;;10500062;28;20213;-77
2021/10/01 03:11:17;;;;;;;5.07;1.33;;;;;11.30;101246.00;;;;10483375;28;20201;-77
2021/10/01 03:16:21;;;;;;;3.90;1.37;;;;;11.30;101245.00;;;;10504217;28;20256;-77
2021/10/01 03:21:25;;;;;;;2.47;0.80;;;;;11.20;101238.00;;;;10457862;28;20202;-77
2021/10/01 03:26:29;;;;;;;1.90;0.90;;;;;11.10;101224.00;;;;10441142;28;20658;-77
2021/10/01 03:31:33;;;;;;;4.20;0.93;;;;;11.10;101213.00;;;;10466546;28;20228;-77
2021/10/01 03:36:35;;;;;;;2.23;1.03;;;;;11.10;101201.00;;;;10466345;28;20197;-77
2021/10/01 03:41:37;;;;;;;6.70;1.30;;;;;11.10;101195.00;;;;10506001;28;20248;-77
2021/10/01 03:46:41;;;;;;;5.73;1.20;;;;;11.10;101179.00;;;;10505997;28;20194;-77
2021/10/01 03:51:43;;;;;;;1.80;0.80;;;;;11.10;101171.00;;;;10489821;28;20220;-76
2021/10/01 03:56:45;;;;;;;5.77;1.10;;;;;11.00;101168.00;;;;10470690;28;20190;-77
2021/10/01 04:01:48;;;;;;;5.37;1.33;;;;;11.00;101166.00;;;;10432322;28;20198;-77
2021/10/01 04:06:50;;;;;;;2.47;1.00;;;;;10.90;101160.00;;;;10464859;28;20244;-77
2021/10/01 04:11:53;;;;;;;2.77;1.10;;;;;10.90;101148.00;;;;10464325;28;20703;-77
2021/10/01 04:16:56;;;;;;;1.70;0.90;;;;;10.80;101143.00;;;;10412178;28;20699;-76
2021/10/01 04:21:58;;;;;;;4.13;1.47;;;;;10.70;101148.00;;;;10407187;28;20194;-77
2021/10/01 04:27:01;;;;;;;4.80;1.40;;;;;10.70;101134.00;;;;10397952;28;20652;-77
2021/10/01 04:32:06;;;;;;;3.57;1.40;;;;;10.80;101136.00;;;;10465165;28;20214;-77
2021/10/01 04:37:08;;;;;;;4.70;1.10;;;;;10.70;101136.00;;;;10430637;28;20221;-77
2021/10/01 04:42:10;;;;;;;2.87;0.70;;;;;10.70;101124.00;;;;10463850;28;20206;-76
2021/10/01 04:47:12;;;;;;;2.93;1.10;;;;;10.70;101122.00;;;;10446719;28;20183;-77
2021/10/01 04:52:14;;;;;;;6.90;1.50;;;;;10.70;101128.00;;;;10446979;28;20218;-77
2021/10/01 04:57:16;;;;;;;4.37;1.30;;;;;10.60;101123.00;;;;10452888;28;20236;-77
2021/10/01 05:02:44;;;;;;;6.07;1.40;;;;;10.60;101129.00;;;;10456897;28;20206;-76
2021/10/01 05:07:55;;;;;;;3.23;1.27;;;;;10.60;101114.00;;;;10436512;28;20531;-76
2021/10/01 05:13:15;;;;;;;3.73;1.20;;;;;10.70;101111.00;;;;10419160;28;20210;-77
2021/10/01 05:18:36;;;;;;;4.80;1.10;;;;;10.70;101107.00;;;;10440406;28;20531;-77
2021/10/01 05:23:56;;;;;;;3.17;0.90;;;;;10.80;101103.00;;;;10431849;28;20182;-76
2021/10/01 05:28:58;;;;;;;5.67;1.10;;;;;10.90;101103.00;;;;10428484;28;20677;-77
2021/10/01 05:34:00;;;;;;;2.47;1.00;;;;;11.00;101094.00;;;;10446938;28;20218;-76
2021/10/01 05:39:03;;;;;;;5.97;1.00;;;;;11.10;101101.00;;;;10404208;28;20202;-76
2021/10/01 05:44:05;;;;;;;2.87;1.20;;;;;11.20;101086.00;;;;10453192;28;20229;-77
2021/10/01 05:49:09;;;;;;;4.57;1.30;;;;;11.20;101083.00;;;;10419690;28;20206;-77
2021/10/01 05:54:30;;;;;;;3.90;1.10;;;;;11.30;101087.00;;;;10450565;28;20215;-77
2021/10/01 05:59:52;;;;;;;2.67;1.10;;;;;11.40;101093.00;;;;10428268;28;20209;-77
2021/10/01 06:04:55;;;;;;;5.00;1.33;;;;;11.50;101082.00;;;;10444256;28;20216;-77
2021/10/01 06:09:58;;;;;;;3.07;1.00;;;;;11.70;101088.00;;;;10421356;28;20213;-76
2021/10/01 06:15:01;;;;;;;3.60;1.10;;;;;11.90;101101.00;;;;10386965;28;20207;-76
2021/10/01 06:20:06;;;;;;;2.27;1.13;;;;;12.00;101083.00;;;;10428406;28;20221;-76
2021/10/01 06:25:08;;;;;;;4.00;1.40;;;;;12.00;101081.00;;;;10472458;28;20193;-77
2021/10/01 06:30:10;;;;;;;6.07;1.27;;;;;12.10;101077.00;;;;10427357;28;20248;-77
2021/10/01 06:35:12;;;;;;;3.63;1.20;;;;;12.30;101076.00;;;;10449202;28;20555;-77
2021/10/01 06:40:14;;;;;;;4.17;1.20;;;;;12.40;101065.00;;;;10442844;28;20240;-77
2021/10/01 06:45:29;;;;;;;2.47;0.87;;;;;12.50;101077.00;;;;10468717;28;20236;-77
2021/10/01 07:22:40;;;;;;;3.60;1.13;;;;;14.00;101048.00;;;;10431624;28;20195;-79
2021/10/01 08:21:17;;;;;;;5.37;1.17;;;;;15.80;101053.00;;;;10408460;28;20202;-79
2021/10/01 08:26:40;;;;;;;6.90;1.65;;;;;16.30;101056.00;;;;10428241;28;20183;-78
2021/10/01 08:31:43;;;;;;;4.30;1.25;;;;;16.20;101057.00;;;;10470830;28;20201;-78
2021/10/01 08:36:45;;;;;;;4.25;1.00;;;;;16.40;101050.00;;;;10432625;28;20210;-78
2021/10/01 08:41:49;;;;;;;5.57;1.40;;;;;16.80;101041.00;;;;10416078;28;20318;-78
2021/10/01 08:46:50;;;;;;;3.65;1.20;;;;;16.80;101032.00;;;;10464829;28;20240;-79
2021/10/01 08:51:57;;;;;;;3.72;1.23;;;;;16.90;101026.00;;;;10432646;28;20233;-79
2021/10/01 08:56:59;;;;;;;4.80;1.20;;;;;17.00;101028.00;;;;10435352;28;20684;-79
2021/10/01 09:02:02;;;;;;;2.50;1.27;;;;;17.10;101024.00;;;;10489389;28;20194;-79
2021/10/01 09:07:04;;;;;;;6.63;1.65;;;;;17.20;101007.00;;;;10456526;28;20476;-79
2021/10/01 09:12:07;;;;;;;2.83;1.10;;;;;17.70;100998.00;;;;10390329;28;20206;-78
2021/10/01 09:17:12;;;;;;;5.50;1.38;;;;;18.40;100991.00;;;;10389847;28;20195;-79
2021/10/01 09:22:35;;;;;;;3.92;1.27;;;;;18.40;100992.00;;;;10438073;28;20199;-79
2021/10/01 09:27:42;;;;;;;5.65;1.20;;;;;18.30;100981.00;;;;10472456;28;20193;-78
2021/10/01 09:33:04;;;;;;;5.25;1.10;;;;;18.40;100970.00;;;;10471218;28;20209;-79
2021/10/01 09:38:16;;;;;;;2.97;1.33;;;;;18.70;100963.00;;;;10504112;28;20197;-79
2021/10/01 09:43:36;;;;;;;5.45;1.20;;;;;18.70;100956.00;;;;10498372;28;20546;-78
2021/10/01 09:48:40;;;;;;;6.93;1.48;;;;;18.40;100969.00;;;;10421023;28;20229;-79
2021/10/01 09:53:51;;;;;;;4.35;1.15;;;;;18.20;100958.00;;;;10420304;28;20214;-79
2021/10/01 09:59:08;;;;;;;5.10;1.42;;;;;18.40;100949.00;;;;10472844;28;20191;-78
2021/10/01 10:04:15;;;;;;;7.18;1.27;;;;;18.70;100952.00;;;;10412069;28;20186;-78
2021/10/01 10:09:35;;;;;;;7.35;1.23;;;;;19.00;100947.00;;;;10444953;28;20182;-79
2021/10/01 10:14:44;;;;;;;4.45;1.05;;;;;19.90;100941.00;;;;10460973;28;20214;-79
2021/10/01 10:19:48;;;;;;;9.07;1.42;;;;;20.70;100935.00;;;;10421411;28;20248;-79
2021/10/01 10:24:51;;;;;;;5.05;1.50;;;;;20.80;100916.00;;;;10445010;28;20209;-79
2021/10/01 10:29:53;;;;;;;3.38;1.00;;;;;20.90;100914.00;;;;10461413;28;20198;-79
2021/10/01 10:35:02;;;;;;;3.15;0.80;;;;;21.20;100917.00;;;;10461773;28;20214;-77
2021/10/01 10:40:09;;;;;;;4.82;1.17;;;;;21.10;100906.00;;;;10444222;28;20620;-79
2021/10/01 10:45:17;;;;;;;5.85;1.20;;;;;20.90;100899.00;;;;10444405;28;20210;-79
2021/10/01 10:50:22;;;;;;;3.15;1.02;;;;;20.80;100908.00;;;;10427621;28;20255;-79
2021/10/01 10:55:27;;;;;;;3.47;1.20;;;;;20.60;100918.00;;;;10411305;28;20695;-77
2021/10/01 11:00:34;;;;;;;3.10;1.00;;;;;20.60;100922.00;;;;10442006;28;20194;-78
2021/10/01 11:05:36;;;;;;;2.90;1.42;;;;;20.80;100918.00;;;;10425589;28;20202;-77
2021/10/01 11:10:41;;;;;;;5.72;1.40;;;;;20.80;100920.00;;;;10457984;28;20189;-77
2021/10/01 11:16:11;;;;;;;6.13;1.33;;;;;20.70;100922.00;;;;10383858;28;20252;-77
2021/10/01 11:21:26;;;;;;;3.03;1.33;;;;;20.50;100916.00;;;;10410422;28;20549;-79
2021/10/01 11:26:31;;;;;;;3.97;1.50;;;;;20.20;100912.00;;;;10412279;28;20207;-80
2021/10/01 11:31:38;;;;;;;2.25;1.00;;;;;20.10;100909.00;;;;10441653;28;20228;-79
2021/10/01 11:36:40;;;;;;;5.72;1.35;;;;;20.20;100920.00;;;;10424506;28;20191;-77
2021/10/01 11:41:47;;;;;;;3.70;1.23;;;;;20.30;100910.00;;;;10432979;28;20234;-77
2021/10/01 11:46:50;;;;;;;3.88;1.25;;;;;20.20;100918.00;;;;10410225;28;20306;-79
2021/10/01 11:52:05;;;;;;;7.35;1.23;;;;;20.20;100900.00;;;;10417794;28;20257;-79
2021/10/01 11:57:08;;;;;;;3.95;1.70;;;;;20.10;100905.00;;;;10422339;28;20727;-78
2021/10/01 12:02:10;;;;;;;7.10;1.30;;;;;19.80;100902.00;;;;10414290;28;20221;-79
2021/10/01 12:07:12;;;;;;;10.73;3.20;;;;;20.00;100907.00;;;;10466746;28;20224;-80
2021/10/01 12:12:15;;;;;;;5.20;1.40;;;;;20.30;100896.00;;;;10466124;28;20963;-79
2021/10/01 12:17:17;;;;;;;8.43;2.05;;;;;20.40;100897.00;;;;10432352;28;20262;-78
2021/10/01 12:22:20;;;;;;;7.10;1.15;;;;;20.50;100897.00;;;;10431849;28;20298;-79
2021/10/01 12:27:34;;;;;;;7.93;1.48;;;;;20.50;100884.00;;;;10420229;28;20221;-78
2021/10/01 12:32:37;;;;;;;6.55;1.45;;;;;20.40;100883.00;;;;10431105;28;20195;-78
2021/10/01 12:37:41;;;;;;;5.72;1.17;;;;;20.20;100900.00;;;;10398001;28;20206;-77
2021/10/01 12:42:42;;;;;;;5.03;1.15;;;;;20.10;100889.00;;;;10431927;28;20242;-78
2021/10/01 12:47:46;;;;;;;5.47;1.13;;;;;19.80;100883.00;;;;10430956;28;20972;-78
2021/10/01 12:53:00;;;;;;;5.43;1.55;;;;;19.20;100890.00;;;;10446310;28;20244;-77
2021/10/01 12:58:03;;;;;;;4.57;1.30;;;;;19.00;100867.00;;;;10448405;28;20213;-80
2021/10/01 13:03:07;;;;;;;5.55;1.15;;;;;18.90;100864.00;;;;10448557;28;20203;-79
2021/10/01 13:08:15;;;;;;;4.30;0.90;;;;;18.80;100868.00;;;;10464410;28;20190;-80
2021/10/01 13:13:28;;;;;;;5.75;1.80;;;;;19.10;100849.00;;;;10463114;28;20598;-80
2021/10/01 13:18:36;;;;;;;6.38;1.50;;;;;18.90;100830.00;;;;10496845;28;20187;-80
2021/10/01 13:23:47;;;;;;;4.15;1.02;;;;;18.90;100828.00;;;;10422661;28;20211;-80
2021/10/01 13:28:52;;;;;;;3.90;1.20;;;;;19.20;100823.00;;;;10443830;28;20229;-79
2021/10/01 13:33:55;;;;;;;4.32;1.15;;;;;19.40;100836.00;;;;10487837;28;20194;-79
2021/10/01 13:38:57;;;;;;;5.18;1.30;;;;;19.50;100829.00;;;;10498605;28;20205;-79
2021/10/01 13:43:59;;;;;;;6.05;1.55;;;;;19.60;100818.00;;;;10429107;28;20256;-79
2021/10/01 13:49:00;;;;;;;2.63;1.10;;;;;19.90;100816.00;;;;10444154;28;20546;-80
2021/10/01 13:54:02;;;;;;;6.10;1.27;;;;;19.50;100811.00;;;;10410726;28;20199;-80
2021/10/01 13:59:04;;;;;;;2.85;1.13;;;;;19.10;100820.00;;;;10445702;28;20662;-79
2021/10/01 14:04:06;;;;;;;4.20;1.50;;;;;18.80;100805.00;;;;10443225;28;20259;-79
2021/10/01 14:09:08;;;;;;;3.65;1.50;;;;;18.50;100812.00;;;;10462888;28;20217;-80
2021/10/01 14:14:30;;;;;;;3.40;1.13;;;;;18.20;100807.00;;;;10441840;28;20197;-79
2021/10/01 14:19:32;;;;;;;4.28;1.38;;;;;18.10;100797.00;;;;10428298;28;20198;-80
2021/10/01 14:24:37;;;;;;;3.38;1.30;;;;;18.20;100786.00;;;;10425008;28;20203;-79
2021/10/01 14:29:59;;;;;;;3.78;1.30;;;;;18.30;100790.00;;;;10421848;28;20205;-80
2021/10/01 14:35:17;;;;;;;4.60;1.35;;;;;18.30;100786.00;;;;10471220;28;20557;-79
2021/10/01 14:40:19;;;;;;;3.58;1.23;;;;;18.20;100764.00;;;;10423049;28;20631;-79
2021/10/01 14:45:34;;;;;;;4.07;1.20;;;;;18.40;100771.00;;;;10443311;28;20209;-79
2021/10/01 14:51:10;;;;;;;5.45;1.83;;;;;18.70;100768.00;;;;10421253;28;20867;-78
2021/10/01 14:56:33;;;;;;;4.10;1.10;;;;;18.80;100761.00;;;;10371744;28;20187;-78
2021/10/01 15:01:35;;;;;;;4.20;1.42;;;;;18.60;100763.00;;;;10400582;28;20195;-78
2021/10/01 15:06:38;;;;;;;2.03;1.00;;;;;18.50;100757.00;;;;10385073;28;20257;-78
2021/10/01 15:11:40;;;;;;;3.80;1.60;;;;;18.10;100768.00;;;;10380708;28;20249;-76
2021/10/01 15:16:42;;;;;;;2.97;1.23;;;;;17.70;100769.00;;;;10429256;28;20219;-78
2021/10/01 15:21:44;;;;;;;3.47;1.15;;;;;17.60;100766.00;;;;10416055;28;20207;-78
2021/10/01 15:26:46;;;;;;;6.40;1.40;;;;;17.50;100770.00;;;;10406175;28;20641;-78
2021/10/01 15:31:48;;;;;;;3.05;1.00;;;;;17.30;100770.00;;;;10373955;28;20196;-78
2021/10/01 15:36:51;;;;;;;3.22;1.75;;;;;17.10;100766.00;;;;10428179;28;20221;-78
2021/10/01 15:41:53;;;;;;;5.07;1.33;;;;;17.20;100761.00;;;;10438621;28;20222;-79
2021/10/01 15:46:55;;;;;;;4.07;1.10;;;;;17.10;100767.00;;;;10405302;28;20247;-79
2021/10/01 15:51:57;;;;;;;9.05;1.63;;;;;16.80;100777.00;;;;10409478;28;20211;-80
2021/10/01 15:56:59;;;;;;;3.17;1.00;;;;;16.50;100777.00;;;;10435753;28;20197;-79
2021/10/01 16:02:02;;;;;;;5.05;1.20;;;;;16.20;100776.00;;;;10427691;28;20349;-80
2021/10/01 16:07:04;;;;;;;4.07;1.35;;;;;16.00;100782.00;;;;10453981;28;20214;-80
2021/10/01 16:12:06;;;;;;;3.10;1.07;;;;;15.90;100785.00;;;;10425231;28;20222;-78
2021/10/01 16:17:08;;;;;;;3.83;1.05;;;;;15.80;100794.00;;;;10420466;28;20704;-79
2021/10/01 16:22:10;;;;;;;3.87;1.23;;;;;15.60;100793.00;;;;10392876;28;20205;-79
2021/10/01 16:27:13;;;;;;;2.92;1.23;;;;;15.30;100794.00;;;;10426908;28;20206;-79
2021/10/01 16:32:15;;;;;;;5.13;1.40;;;;;15.20;100802.00;;;;10420948;28;20638;-79
2021/10/01 16:37:17;;;;;;;4.77;1.40;;;;;15.00;100797.00;;;;10437679;28;20206;-79
2021/10/01 16:42:19;;;;;;;2.20;1.30;;;;;14.90;100801.00;;;;10455356;28;20214;-81
2021/10/01 16:47:23;;;;;;;1.67;1.17;;;;;14.80;100791.00;;;;10416352;28;20218;-80
2021/10/01 16:52:25;;;;;;;3.93;1.43;;;;;14.70;100783.00;;;;10475714;28;20615;-80
2021/10/01 16:57:28;;;;;;;4.57;1.40;;;;;14.50;100783.00;;;;10486544;28;20229;-80
2021/10/01 17:02:30;;;;;;;5.80;1.43;;;;;14.40;100778.00;;;;10506382;28;20309;-80
2021/10/01 17:07:32;;;;;;;3.33;1.53;;;;;14.30;100783.00;;;;10488051;28;20214;-80
2021/10/01 17:12:35;;;;;;;9.33;1.80;;;;;14.30;100785.00;;;;10487865;28;20194;-80
2021/10/01 17:17:37;;;;;;;10.13;1.80;;;;;14.30;100778.00;;;;10466224;28;20190;-80
2021/10/01 17:22:39;;;;;;;2.97;1.60;;;;;14.20;100789.00;;;;10420089;28;20210;-82
2021/10/01 17:27:41;;;;;;;5.30;2.43;;;;;14.20;100791.00;;;;10440364;28;20685;-84
2021/10/01 17:32:43;;;;;;;5.33;1.73;;;;;14.10;100788.00;;;;10462792;28;20209;-83
2021/10/01 17:37:45;;;;;;;3.93;1.70;;;;;14.00;100785.00;;;;10445091;28;20221;-82
2021/10/01 17:42:46;;;;;;;8.60;2.03;;;;;14.00;100781.00;;;;10435402;28;20210;-80
2021/10/01 17:47:50;;;;;;;3.93;2.10;;;;;13.90;100801.00;;;;10441061;28;20205;-83
2021/10/01 17:52:52;;;;;;;6.47;2.10;;;;;13.90;100790.00;;;;10438944;28;20206;-83
2021/10/01 17:57:54;;;;;;;6.27;2.30;;;;;13.90;100782.00;;;;10434937;28;20190;-82
2021/10/01 18:02:56;;;;;;;6.80;2.03;;;;;13.80;100789.00;;;;10440396;28;20205;-83
2021/10/01 18:07:58;;;;;;;8.40;2.77;;;;;13.80;100782.00;;;;10441348;28;20252;-82
2021/10/01 18:13:00;;;;;;;4.43;2.37;;;;;13.80;100791.00;;;;10464634;28;20704;-84
2021/10/01 18:18:02;;;;;;;5.97;2.43;;;;;13.80;100795.00;;;;10431606;28;20186;-82
2021/10/01 18:23:04;;;;;;;4.73;2.50;;;;;13.70;100787.00;;;;10446284;28;20198;-82
2021/10/01 18:28:06;;;;;;;5.07;2.50;;;;;13.70;100776.00;;;;10435117;28;20220;-82
2021/10/01 18:33:09;;;;;;;8.97;2.83;;;;;13.70;100772.00;;;;10448692;28;20213;-82
2021/10/01 18:38:11;;;;;;;6.43;3.17;;;;;13.70;100772.00;;;;10430414;28;20316;-83
2021/10/01 18:43:15;;;;;;;7.40;3.20;;;;;13.70;100767.00;;;;10430369;28;20225;-83
2021/10/01 18:48:18;;;;;;;7.17;3.10;;;;;13.70;100762.00;;;;10425127;28;20222;-83
2021/10/01 18:53:20;;;;;;;9.90;2.93;;;;;13.60;100769.00;;;;10380908;28;20646;-83
2021/10/01 18:58:25;;;;;;;6.70;2.70;;;;;13.60;100757.00;;;;10411165;28;20199;-83
2021/10/01 19:03:29;;;;;;;3.43;2.43;;;;;13.60;100765.00;;;;10400880;28;20198;-83
2021/10/01 19:08:35;;;;;;;7.17;2.53;;;;;13.50;100759.00;;;;10407908;28;20273;-83
2021/10/01 19:13:37;;;;;;;5.73;2.77;;;;;13.50;100762.00;;;;10403814;28;20233;-83
2021/10/01 19:18:40;;;;;;;4.17;2.73;;;;;13.50;100762.00;;;;10406695;28;20198;-83
2021/10/01 19:34:14;;;;;;;7.10;2.60;;;;;13.40;100763.00;;;;10406389;28;20716;-83
2021/10/01 19:39:16;;;;;;;6.83;3.07;;;;;13.40;100759.00;;;;10403368;28;20305;-81
2021/10/01 19:44:18;;;;;;;3.83;2.23;;;;;13.40;100765.00;;;;10377336;28;20272;-82
2021/10/01 19:49:20;;;;;;;4.67;2.40;;;;;13.30;100763.00;;;;10400476;28;20665;-82
2021/10/01 19:54:22;;;;;;;5.70;2.60;;;;;13.30;100776.00;;;;10426949;28;20244;-83
2021/10/01 19:59:23;;;;;;;4.17;2.70;;;;;13.30;100776.00;;;;10445164;28;20194;-82
2021/10/01 20:04:25;;;;;;;4.23;2.67;;;;;13.30;100774.00;;;;10422016;28;20203;-81
2021/10/01 20:09:27;;;;;;;7.80;2.70;;;;;13.40;100776.00;;;;10370888;28;20198;-80
2021/10/01 20:14:29;;;;;;;3.33;2.80;;;;;13.40;100764.00;;;;10388222;28;20712;-85
2021/10/01 20:51:05;;;;;;;5.63;2.93;;;;;13.50;100759.00;;;;10404025;28;20204;-82
2021/10/01 20:56:10;;;;;;;7.07;3.57;;;;;13.50;100765.00;;;;10435161;28;20260;-82
2021/10/01 21:49:03;;;;;;;8.93;7.77;;;;;13.60;100797.00;;;;10416058;28;20213;-83
2021/10/01 21:54:06;;;;;;;11.23;8.80;;;;;13.70;100797.00;;;;10419817;28;20194;-82
2021/10/01 21:59:16;;;;;;;10.33;9.13;;;;;13.70;100789.00;;;;10466746;28;20268;-82
2021/10/01 22:09:55;;;;;;;12.03;10.57;;;;;13.70;100797.00;;;;10431515;28;20197;-82
2021/10/01 22:15:33;;;;;;;14.70;11.13;;;;;13.70;100790.00;;;;10454211;28;20193;-81
2021/10/01 22:20:30;;;;;;;15.13;11.63;;;;;13.70;100795.00;;;;10434732;28;20197;-82
2021/10/01 22:25:32;;;;;;;16.70;11.80;;;;;13.70;100796.00;;;;10489282;28;20228;-82
2021/10/01 22:30:38;;;;;;;16.50;11.87;;;;;13.70;100797.00;;;;10482035;28;20223;-80
2021/10/01 22:35:41;;;;;;;14.27;11.83;;;;;13.70;100793.00;;;;10474346;28;20191;-81
2021/10/01 22:40:47;;;;;;;17.60;13.30;;;;;13.70;100790.00;;;;10451051;28;20689;-80
2021/10/01 22:45:50;;;;;;;15.83;14.30;;;;;13.70;100793.00;;;;10465744;28;20288;-80
2021/10/01 22:50:56;;;;;;;18.67;15.30;;;;;13.70;100789.00;;;;10477592;28;20201;-80
2021/10/01 22:56:00;;;;;;;19.33;14.20;;;;;13.70;100793.00;;;;10467480;28;20194;-80
2021/10/01 23:01:09;;;;;;;19.60;12.77;;;;;13.60;100799.00;;;;10496210;28;20189;-80
2021/10/01 23:06:11;;;;;;;18.43;14.40;;;;;13.60;100798.00;;;;10481416;28;20201;-79
2021/10/01 23:11:17;;;;;;;18.43;13.67;;;;;13.50;100799.00;;;;10444930;28;20197;-80
2021/10/01 23:43:28;;;;;;;20.60;13.83;;;;;13.10;100790.00;;;;10451909;28;20684;-80
